Airfield :
LOGIN :

Register | Disclaimer

   EN    FR    IT 

 










Legend :    VFR   Marginal VFR   IFR   Intensive IFR   Very Intensive IFR
Visi :
Ceiling :
>= 8 km
>= 3000ft
5 to 8 km
1000 to 3000 ft
1500m to 5 km
500 to 1000 ft
800 to 1500m
200 to 500 ft
< 800m
< 200 ft
Symbols :   Thunderstorms  Fog  Heavy snow  Heavy precipitations  Wind > 20 kt
SIGMETs :     Misc.  Thunderstorms  Icing  Turbulence  Mountain Waves  Volcanic Ashes






- Airport Elevation : 788 ft
- IATA code : DCM


LFCK - Castres-Mazamet

CURRENT METAR :
  • 221300Z AUTO 30009KT 9999 FEW017 SCT024 OVC031 14/11 Q1023 TEMPO SCT020TCU

EXPIRED METARs :
  • 221230Z AUTO 31009KT 9999 -DZ SCT012 BKN019 BKN024 13/12 Q1023 TEMPO SCT020TCU
  • 221200Z AUTO 30007KT 9999 FEW006 OVC026 13/12 Q1023 TEMPO SCT020TCU
  • 221130Z AUTO 31007KT 9999 4600 BKN009 OVC019 13/12 Q1023 TEMPO SCT030TCU
  • 221100Z AUTO 30011KT 9999 BKN009 OVC022 13/11 Q1023 TEMPO SCT030TCU
  • 221030Z AUTO 30010KT 9999 BKN008 BKN015 OVC022 13/11 Q1023 TEMPO SCT030TCU

TAF TAF LFCK
Valid from the 22 at 12:00 until the 22 at 21:00 UTC


221100Z 2212/2221 30010KT 9999 BKN008 BKN020
BECMG 2212/2214 SCT013 BKN020
PROB30
TEMPO 2212/2216 -SHRA SCT020TCU
BECMG 2214/2216 SCT025 BKN040
BECMG 2218/2220 VRB03KT CAVOK



MET'MAP, your aeronautical weather chart ! - Copyright ORBIFLY December 2007 - Disclaimer

ORBIFLY MET'MAP TEAM :

Programming & Development : Alexandra Zaïnal
Concept & original design : Baudouin d'Aumeries
Assistance for programming : Marc-Olivier Méhu
Technical & hardware support : Manuel Goepfert

Contact : metmap@orbifly.com




SOURCES & CREDITS :

   NOAA